sensor_id;sensor_type;location;lat;lon;timestamp;temperature;humidity
37788;DHT22;23627;53.302;-6.362;2023-03-17T00:01:16;10.70;99.90
37788;DHT22;23627;53.302;-6.362;2023-03-17T00:03:44;10.60;99.90
37788;DHT22;23627;53.302;-6.362;2023-03-17T00:06:17;10.60;99.90
37788;DHT22;23627;53.302;-6.362;2023-03-17T00:08:44;10.60;99.90
37788;DHT22;23627;53.302;-6.362;2023-03-17T00:11:13;10.60;99.90
37788;DHT22;23627;53.302;-6.362;2023-03-17T00:13:39;10.60;99.90
37788;DHT22;23627;53.302;-6.362;2023-03-17T00:16:18;10.60;99.90
37788;DHT22;23627;53.302;-6.362;2023-03-17T00:18:45;10.60;99.90
37788;DHT22;23627;53.302;-6.362;2023-03-17T00:21:15;10.50;99.90
37788;DHT22;23627;53.302;-6.362;2023-03-17T00:23:46;10.50;99.90
37788;DHT22;23627;53.302;-6.362;2023-03-17T00:26:13;10.50;99.90
37788;DHT22;23627;53.302;-6.362;2023-03-17T00:28:38;10.50;99.90
37788;DHT22;23627;53.302;-6.362;2023-03-17T00:31:18;10.50;99.90
37788;DHT22;23627;53.302;-6.362;2023-03-17T00:33:46;10.40;99.90
37788;DHT22;23627;53.302;-6.362;2023-03-17T00:36:19;10.40;99.90
37788;DHT22;23627;53.302;-6.362;2023-03-17T00:38:46;10.40;99.90
37788;DHT22;23627;53.302;-6.362;2023-03-17T00:41:11;10.40;99.90
37788;DHT22;23627;53.302;-6.362;2023-03-17T00:43:39;10.40;99.90
37788;DHT22;23627;53.302;-6.362;2023-03-17T00:48:52;10.40;99.90
37788;DHT22;23627;53.302;-6.362;2023-03-17T00:51:19;10.30;99.90
37788;DHT22;23627;53.302;-6.362;2023-03-17T00:53:45;10.30;99.90
37788;DHT22;23627;53.302;-6.362;2023-03-17T00:56:14;10.30;99.90
37788;DHT22;23627;53.302;-6.362;2023-03-17T00:58:40;10.30;99.90
37788;DHT22;23627;53.302;-6.362;2023-03-17T01:01:06;10.20;99.90
37788;DHT22;23627;53.302;-6.362;2023-03-17T01:03:33;10.20;99.90
37788;DHT22;23627;53.302;-6.362;2023-03-17T01:05:59;10.20;99.90
37788;DHT22;23627;53.302;-6.362;2023-03-17T01:08:27;10.20;99.90
37788;DHT22;23627;53.302;-6.362;2023-03-17T01:10:55;10.20;99.90
37788;DHT22;23627;53.302;-6.362;2023-03-17T01:13:21;10.10;99.90
37788;DHT22;23627;53.302;-6.362;2023-03-17T01:15:48;10.10;99.90
37788;DHT22;23627;53.302;-6.362;2023-03-17T01:18:16;10.10;99.90
37788;DHT22;23627;53.302;-6.362;2023-03-17T01:20:43;10.10;99.90
37788;DHT22;23627;53.302;-6.362;2023-03-17T01:23:10;10.10;99.90
37788;DHT22;23627;53.302;-6.362;2023-03-17T01:25:36;10.10;99.90
37788;DHT22;23627;53.302;-6.362;2023-03-17T01:28:04;10.10;99.90
37788;DHT22;23627;53.302;-6.362;2023-03-17T01:30:38;10.10;99.90
37788;DHT22;23627;53.302;-6.362;2023-03-17T01:33:08;10.00;99.90
37788;DHT22;23627;53.302;-6.362;2023-03-17T01:35:36;10.00;99.90
37788;DHT22;23627;53.302;-6.362;2023-03-17T01:38:03;10.00;99.90
37788;DHT22;23627;53.302;-6.362;2023-03-17T01:40:32;10.00;99.90
37788;DHT22;23627;53.302;-6.362;2023-03-17T01:59:53;10.10;99.90
37788;DHT22;23627;53.302;-6.362;2023-03-17T02:02:23;10.10;99.90
37788;DHT22;23627;53.302;-6.362;2023-03-17T02:04:50;10.00;99.90
37788;DHT22;23627;53.302;-6.362;2023-03-17T02:07:18;10.00;99.90
37788;DHT22;23627;53.302;-6.362;2023-03-17T02:09:45;10.10;99.90
37788;DHT22;23627;53.302;-6.362;2023-03-17T02:12:12;10.10;99.90
37788;DHT22;23627;53.302;-6.362;2023-03-17T02:14:41;10.00;99.90
37788;DHT22;23627;53.302;-6.362;2023-03-17T02:17:07;10.10;99.90
37788;DHT22;23627;53.302;-6.362;2023-03-17T02:19:33;10.10;99.90
37788;DHT22;23627;53.302;-6.362;2023-03-17T02:21:59;10.10;99.90
37788;DHT22;23627;53.302;-6.362;2023-03-17T02:24:38;10.10;99.90
37788;DHT22;23627;53.302;-6.362;2023-03-17T02:27:12;10.10;99.90
37788;DHT22;23627;53.302;-6.362;2023-03-17T02:29:39;10.10;99.90
37788;DHT22;23627;53.302;-6.362;2023-03-17T02:32:05;10.10;99.90
37788;DHT22;23627;53.302;-6.362;2023-03-17T02:34:32;10.10;99.90
37788;DHT22;23627;53.302;-6.362;2023-03-17T02:36:58;10.10;99.90
37788;DHT22;23627;53.302;-6.362;2023-03-17T02:39:24;10.10;99.90
37788;DHT22;23627;53.302;-6.362;2023-03-17T02:41:51;10.20;99.90
37788;DHT22;23627;53.302;-6.362;2023-03-17T02:44:17;10.20;99.90
37788;DHT22;23627;53.302;-6.362;2023-03-17T02:46:43;10.20;99.90
37788;DHT22;23627;53.302;-6.362;2023-03-17T02:49:13;10.20;99.90
37788;DHT22;23627;53.302;-6.362;2023-03-17T02:51:39;10.20;99.90
37788;DHT22;23627;53.302;-6.362;2023-03-17T02:54:05;10.20;99.90
37788;DHT22;23627;53.302;-6.362;2023-03-17T02:56:31;10.20;99.90
37788;DHT22;23627;53.302;-6.362;2023-03-17T02:58:57;10.20;99.90
37788;DHT22;23627;53.302;-6.362;2023-03-17T03:01:23;10.10;99.90
37788;DHT22;23627;53.302;-6.362;2023-03-17T03:03:51;10.10;99.90
37788;DHT22;23627;53.302;-6.362;2023-03-17T03:06:17;10.10;99.90
37788;DHT22;23627;53.302;-6.362;2023-03-17T03:08:43;10.10;99.90
37788;DHT22;23627;53.302;-6.362;2023-03-17T03:11:09;10.10;99.90
37788;DHT22;23627;53.302;-6.362;2023-03-17T03:13:35;10.00;99.90
37788;DHT22;23627;53.302;-6.362;2023-03-17T03:16:02;10.00;99.90
37788;DHT22;23627;53.302;-6.362;2023-03-17T03:18:29;10.00;99.90
37788;DHT22;23627;53.302;-6.362;2023-03-17T03:20:55;10.00;99.90
37788;DHT22;23627;53.302;-6.362;2023-03-17T03:23:21;10.00;99.90
37788;DHT22;23627;53.302;-6.362;2023-03-17T03:25:47;9.90;99.90
37788;DHT22;23627;53.302;-6.362;2023-03-17T03:28:13;9.90;99.90
37788;DHT22;23627;53.302;-6.362;2023-03-17T03:30:39;9.90;99.90
37788;DHT22;23627;53.302;-6.362;2023-03-17T03:33:05;9.90;99.90
37788;DHT22;23627;53.302;-6.362;2023-03-17T03:35:32;9.90;99.90
37788;DHT22;23627;53.302;-6.362;2023-03-17T03:37:59;9.90;99.90
37788;DHT22;23627;53.302;-6.362;2023-03-17T03:40:25;9.80;99.90
37788;DHT22;23627;53.302;-6.362;2023-03-17T03:42:54;9.80;99.90
37788;DHT22;23627;53.302;-6.362;2023-03-17T03:45:20;9.80;99.90
37788;DHT22;23627;53.302;-6.362;2023-03-17T03:47:46;9.80;99.90
37788;DHT22;23627;53.302;-6.362;2023-03-17T03:50:12;9.80;99.90
37788;DHT22;23627;53.302;-6.362;2023-03-17T03:52:37;9.70;99.90
37788;DHT22;23627;53.302;-6.362;2023-03-17T03:55:04;9.70;99.90
37788;DHT22;23627;53.302;-6.362;2023-03-17T03:57:29;9.70;99.90
37788;DHT22;23627;53.302;-6.362;2023-03-17T03:59:55;9.70;99.90
37788;DHT22;23627;53.302;-6.362;2023-03-17T04:02:21;9.70;99.90
37788;DHT22;23627;53.302;-6.362;2023-03-17T04:04:46;9.70;99.90
37788;DHT22;23627;53.302;-6.362;2023-03-17T04:07:12;9.70;99.90
37788;DHT22;23627;53.302;-6.362;2023-03-17T04:09:38;9.70;99.90
37788;DHT22;23627;53.302;-6.362;2023-03-17T04:12:04;9.70;99.90
37788;DHT22;23627;53.302;-6.362;2023-03-17T04:14:30;9.70;99.90
37788;DHT22;23627;53.302;-6.362;2023-03-17T04:16:56;9.70;99.90
37788;DHT22;23627;53.302;-6.362;2023-03-17T04:19:22;9.70;99.90
37788;DHT22;23627;53.302;-6.362;2023-03-17T04:21:48;9.70;99.90
37788;DHT22;23627;53.302;-6.362;2023-03-17T04:24:13;9.80;99.90
37788;DHT22;23627;53.302;-6.362;2023-03-17T04:26:40;9.80;99.90
37788;DHT22;23627;53.302;-6.362;2023-03-17T04:29:07;9.80;99.90
37788;DHT22;23627;53.302;-6.362;2023-03-17T04:31:34;9.80;99.90
37788;DHT22;23627;53.302;-6.362;2023-03-17T04:34:00;9.80;99.90
37788;DHT22;23627;53.302;-6.362;2023-03-17T04:36:26;9.80;99.90
37788;DHT22;23627;53.302;-6.362;2023-03-17T04:38:52;9.80;99.90
37788;DHT22;23627;53.302;-6.362;2023-03-17T04:41:18;9.80;99.90
37788;DHT22;23627;53.302;-6.362;2023-03-17T04:43:45;9.80;99.90
37788;DHT22;23627;53.302;-6.362;2023-03-17T04:46:11;9.80;99.90
37788;DHT22;23627;53.302;-6.362;2023-03-17T04:48:37;9.80;99.90
37788;DHT22;23627;53.302;-6.362;2023-03-17T04:51:06;9.80;99.90
37788;DHT22;23627;53.302;-6.362;2023-03-17T04:53:32;9.80;99.90
37788;DHT22;23627;53.302;-6.362;2023-03-17T04:55:57;9.80;99.90
37788;DHT22;23627;53.302;-6.362;2023-03-17T04:58:23;9.80;99.90
37788;DHT22;23627;53.302;-6.362;2023-03-17T05:00:50;9.80;99.90
37788;DHT22;23627;53.302;-6.362;2023-03-17T05:03:16;9.80;99.90
37788;DHT22;23627;53.302;-6.362;2023-03-17T05:05:42;9.90;99.90
37788;DHT22;23627;53.302;-6.362;2023-03-17T05:08:07;9.80;99.90
37788;DHT22;23627;53.302;-6.362;2023-03-17T05:10:33;9.90;99.90
37788;DHT22;23627;53.302;-6.362;2023-03-17T05:12:59;9.90;99.90
37788;DHT22;23627;53.302;-6.362;2023-03-17T05:15:24;9.80;99.90
37788;DHT22;23627;53.302;-6.362;2023-03-17T05:17:50;9.80;99.90
37788;DHT22;23627;53.302;-6.362;2023-03-17T05:20:16;9.90;99.90
37788;DHT22;23627;53.302;-6.362;2023-03-17T05:22:42;9.90;99.90
37788;DHT22;23627;53.302;-6.362;2023-03-17T05:25:08;9.90;99.90
37788;DHT22;23627;53.302;-6.362;2023-03-17T05:27:34;9.90;99.90
37788;DHT22;23627;53.302;-6.362;2023-03-17T05:30:00;9.90;99.90
37788;DHT22;23627;53.302;-6.362;2023-03-17T05:32:27;9.90;99.90
37788;DHT22;23627;53.302;-6.362;2023-03-17T05:34:52;9.90;99.90
37788;DHT22;23627;53.302;-6.362;2023-03-17T05:37:18;9.90;99.90
37788;DHT22;23627;53.302;-6.362;2023-03-17T05:39:44;9.90;99.90
37788;DHT22;23627;53.302;-6.362;2023-03-17T05:42:09;9.90;99.90
37788;DHT22;23627;53.302;-6.362;2023-03-17T05:44:35;9.90;99.90
37788;DHT22;23627;53.302;-6.362;2023-03-17T05:47:01;9.90;99.90
37788;DHT22;23627;53.302;-6.362;2023-03-17T05:49:27;9.90;99.90
37788;DHT22;23627;53.302;-6.362;2023-03-17T05:51:54;9.90;99.90
37788;DHT22;23627;53.302;-6.362;2023-03-17T05:54:20;9.90;99.90
37788;DHT22;23627;53.302;-6.362;2023-03-17T05:56:46;9.90;99.90
37788;DHT22;23627;53.302;-6.362;2023-03-17T05:59:12;9.90;99.90
37788;DHT22;23627;53.302;-6.362;2023-03-17T06:01:43;9.90;99.90
37788;DHT22;23627;53.302;-6.362;2023-03-17T06:04:09;9.90;99.90
37788;DHT22;23627;53.302;-6.362;2023-03-17T06:06:34;9.90;99.90
37788;DHT22;23627;53.302;-6.362;2023-03-17T06:09:00;9.90;99.90
37788;DHT22;23627;53.302;-6.362;2023-03-17T06:11:26;9.90;99.90
37788;DHT22;23627;53.302;-6.362;2023-03-17T06:13:52;9.90;99.90
37788;DHT22;23627;53.302;-6.362;2023-03-17T06:16:18;9.90;99.90
37788;DHT22;23627;53.302;-6.362;2023-03-17T06:18:44;9.80;99.90
37788;DHT22;23627;53.302;-6.362;2023-03-17T06:21:11;9.90;99.90
37788;DHT22;23627;53.302;-6.362;2023-03-17T06:23:37;9.90;99.90
37788;DHT22;23627;53.302;-6.362;2023-03-17T06:26:03;9.90;99.90
37788;DHT22;23627;53.302;-6.362;2023-03-17T06:28:29;9.90;99.90
37788;DHT22;23627;53.302;-6.362;2023-03-17T06:30:55;9.90;99.90
37788;DHT22;23627;53.302;-6.362;2023-03-17T06:33:21;9.90;99.90
37788;DHT22;23627;53.302;-6.362;2023-03-17T06:35:47;9.90;99.90
37788;DHT22;23627;53.302;-6.362;2023-03-17T06:38:12;9.90;99.90
37788;DHT22;23627;53.302;-6.362;2023-03-17T06:40:38;10.00;99.90
37788;DHT22;23627;53.302;-6.362;2023-03-17T06:43:04;10.00;99.90
37788;DHT22;23627;53.302;-6.362;2023-03-17T06:45:30;10.00;99.90
37788;DHT22;23627;53.302;-6.362;2023-03-17T06:47:57;10.00;99.90
37788;DHT22;23627;53.302;-6.362;2023-03-17T06:50:23;10.10;99.90
37788;DHT22;23627;53.302;-6.362;2023-03-17T06:52:49;10.10;99.90
37788;DHT22;23627;53.302;-6.362;2023-03-17T06:55:15;10.10;99.90
37788;DHT22;23627;53.302;-6.362;2023-03-17T06:57:41;10.10;99.90
37788;DHT22;23627;53.302;-6.362;2023-03-17T07:00:08;10.20;99.90
37788;DHT22;23627;53.302;-6.362;2023-03-17T07:02:34;10.20;99.90
37788;DHT22;23627;53.302;-6.362;2023-03-17T07:05:00;10.20;99.90
37788;DHT22;23627;53.302;-6.362;2023-03-17T07:07:26;10.20;99.90
37788;DHT22;23627;53.302;-6.362;2023-03-17T07:09:52;10.30;99.90
37788;DHT22;23627;53.302;-6.362;2023-03-17T07:12:19;10.30;99.90
37788;DHT22;23627;53.302;-6.362;2023-03-17T07:14:44;10.30;99.90
37788;DHT22;23627;53.302;-6.362;2023-03-17T07:17:12;10.40;99.90
37788;DHT22;23627;53.302;-6.362;2023-03-17T07:19:38;10.40;99.90
37788;DHT22;23627;53.302;-6.362;2023-03-17T07:22:05;10.40;99.90
37788;DHT22;23627;53.302;-6.362;2023-03-17T07:24:31;10.50;99.90
37788;DHT22;23627;53.302;-6.362;2023-03-17T07:26:57;10.50;99.90
37788;DHT22;23627;53.302;-6.362;2023-03-17T07:29:23;10.60;99.90
37788;DHT22;23627;53.302;-6.362;2023-03-17T07:31:49;10.60;99.90
37788;DHT22;23627;53.302;-6.362;2023-03-17T07:34:15;10.70;99.90
37788;DHT22;23627;53.302;-6.362;2023-03-17T07:36:41;10.80;99.90
37788;DHT22;23627;53.302;-6.362;2023-03-17T07:39:07;10.90;99.90
37788;DHT22;23627;53.302;-6.362;2023-03-17T07:41:33;10.90;99.90
37788;DHT22;23627;53.302;-6.362;2023-03-17T07:43:59;11.00;99.90
37788;DHT22;23627;53.302;-6.362;2023-03-17T07:46:25;11.10;99.90
37788;DHT22;23627;53.302;-6.362;2023-03-17T07:48:51;11.10;99.90
37788;DHT22;23627;53.302;-6.362;2023-03-17T07:51:21;11.20;99.90
37788;DHT22;23627;53.302;-6.362;2023-03-17T07:53:48;11.30;99.90
37788;DHT22;23627;53.302;-6.362;2023-03-17T07:56:17;11.40;99.90
37788;DHT22;23627;53.302;-6.362;2023-03-17T07:58:43;11.60;99.90
37788;DHT22;23627;53.302;-6.362;2023-03-17T08:01:09;11.70;99.90
37788;DHT22;23627;53.302;-6.362;2023-03-17T08:03:35;11.80;99.90
37788;DHT22;23627;53.302;-6.362;2023-03-17T08:06:01;11.90;99.90
37788;DHT22;23627;53.302;-6.362;2023-03-17T08:08:28;11.90;99.90
37788;DHT22;23627;53.302;-6.362;2023-03-17T08:11:01;12.00;99.90
37788;DHT22;23627;53.302;-6.362;2023-03-17T08:13:28;12.00;99.90
37788;DHT22;23627;53.302;-6.362;2023-03-17T08:15:54;12.10;99.90
37788;DHT22;23627;53.302;-6.362;2023-03-17T08:18:20;12.20;99.90
37788;DHT22;23627;53.302;-6.362;2023-03-17T08:20:46;12.20;99.90
37788;DHT22;23627;53.302;-6.362;2023-03-17T08:23:12;12.20;99.90
37788;DHT22;23627;53.302;-6.362;2023-03-17T08:25:38;12.10;99.90
37788;DHT22;23627;53.302;-6.362;2023-03-17T08:28:04;12.10;99.90
37788;DHT22;23627;53.302;-6.362;2023-03-17T08:30:30;12.10;99.90
37788;DHT22;23627;53.302;-6.362;2023-03-17T08:32:56;12.20;99.90
37788;DHT22;23627;53.302;-6.362;2023-03-17T08:35:25;12.40;99.90
37788;DHT22;23627;53.302;-6.362;2023-03-17T08:37:51;12.40;99.90
37788;DHT22;23627;53.302;-6.362;2023-03-17T08:40:18;12.50;99.90
37788;DHT22;23627;53.302;-6.362;2023-03-17T08:42:47;12.50;99.90
37788;DHT22;23627;53.302;-6.362;2023-03-17T08:45:15;12.50;99.90
37788;DHT22;23627;53.302;-6.362;2023-03-17T08:47:50;12.50;99.90
37788;DHT22;23627;53.302;-6.362;2023-03-17T08:50:20;12.50;99.90
37788;DHT22;23627;53.302;-6.362;2023-03-17T08:52:54;12.60;99.90
37788;DHT22;23627;53.302;-6.362;2023-03-17T08:55:23;12.60;99.90
37788;DHT22;23627;53.302;-6.362;2023-03-17T08:57:49;12.60;99.90
37788;DHT22;23627;53.302;-6.362;2023-03-17T09:00:16;12.70;99.90
37788;DHT22;23627;53.302;-6.362;2023-03-17T09:05:43;12.80;99.90
37788;DHT22;23627;53.302;-6.362;2023-03-17T09:08:09;12.80;99.90
37788;DHT22;23627;53.302;-6.362;2023-03-17T09:10:36;12.80;99.90
37788;DHT22;23627;53.302;-6.362;2023-03-17T09:13:02;12.80;99.90
37788;DHT22;23627;53.302;-6.362;2023-03-17T09:15:32;12.80;99.90
37788;DHT22;23627;53.302;-6.362;2023-03-17T09:17:59;12.80;99.90
37788;DHT22;23627;53.302;-6.362;2023-03-17T09:51:31;12.70;99.90
37788;DHT22;23627;53.302;-6.362;2023-03-17T09:54:15;12.70;99.90
37788;DHT22;23627;53.302;-6.362;2023-03-17T09:56:49;12.70;99.90
37788;DHT22;23627;53.302;-6.362;2023-03-17T09:59:33;12.70;99.90
37788;DHT22;23627;53.302;-6.362;2023-03-17T10:02:00;12.70;99.90
37788;DHT22;23627;53.302;-6.362;2023-03-17T10:04:29;12.60;99.90
37788;DHT22;23627;53.302;-6.362;2023-03-17T10:07:01;12.60;99.90
37788;DHT22;23627;53.302;-6.362;2023-03-17T10:09:33;12.60;99.90
37788;DHT22;23627;53.302;-6.362;2023-03-17T10:12:09;12.60;99.90
37788;DHT22;23627;53.302;-6.362;2023-03-17T10:14:57;12.50;99.90
37788;DHT22;23627;53.302;-6.362;2023-03-17T10:17:35;12.50;99.90
37788;DHT22;23627;53.302;-6.362;2023-03-17T10:20:07;12.50;99.90
37788;DHT22;23627;53.302;-6.362;2023-03-17T10:22:48;12.40;99.90
37788;DHT22;23627;53.302;-6.362;2023-03-17T10:28:16;12.40;99.90
37788;DHT22;23627;53.302;-6.362;2023-03-17T10:30:48;12.30;99.90
37788;DHT22;23627;53.302;-6.362;2023-03-17T10:33:15;12.30;99.90
37788;DHT22;23627;53.302;-6.362;2023-03-17T10:35:46;12.20;99.90
37788;DHT22;23627;53.302;-6.362;2023-03-17T10:38:19;12.20;99.90
37788;DHT22;23627;53.302;-6.362;2023-03-17T10:40:55;12.10;99.90
37788;DHT22;23627;53.302;-6.362;2023-03-17T10:43:23;12.10;99.90
37788;DHT22;23627;53.302;-6.362;2023-03-17T10:46:03;12.00;99.90
37788;DHT22;23627;53.302;-6.362;2023-03-17T10:48:35;12.00;99.90
37788;DHT22;23627;53.302;-6.362;2023-03-17T10:51:07;12.00;99.90
37788;DHT22;23627;53.302;-6.362;2023-03-17T10:53:39;12.00;99.90
37788;DHT22;23627;53.302;-6.362;2023-03-17T10:56:18;12.00;99.90
37788;DHT22;23627;53.302;-6.362;2023-03-17T10:58:48;11.90;99.90
37788;DHT22;23627;53.302;-6.362;2023-03-17T11:01:26;12.00;99.90
37788;DHT22;23627;53.302;-6.362;2023-03-17T11:03:53;12.00;99.90
37788;DHT22;23627;53.302;-6.362;2023-03-17T11:06:31;12.00;99.90
37788;DHT22;23627;53.302;-6.362;2023-03-17T11:09:06;12.00;99.90
37788;DHT22;23627;53.302;-6.362;2023-03-17T11:11:41;12.00;99.90
37788;DHT22;23627;53.302;-6.362;2023-03-17T11:14:14;12.00;99.90
37788;DHT22;23627;53.302;-6.362;2023-03-17T11:19:18;12.10;99.90
37788;DHT22;23627;53.302;-6.362;2023-03-17T11:21:57;12.10;99.90
37788;DHT22;23627;53.302;-6.362;2023-03-17T11:24:33;12.20;99.90
37788;DHT22;23627;53.302;-6.362;2023-03-17T11:27:29;12.20;99.90
37788;DHT22;23627;53.302;-6.362;2023-03-17T12:06:31;12.50;99.90
37788;DHT22;23627;53.302;-6.362;2023-03-17T12:09:03;12.60;99.90
37788;DHT22;23627;53.302;-6.362;2023-03-17T12:11:48;12.70;99.90
37788;DHT22;23627;53.302;-6.362;2023-03-17T12:17:38;12.80;99.90
37788;DHT22;23627;53.302;-6.362;2023-03-17T12:20:36;12.80;99.90
37788;DHT22;23627;53.302;-6.362;2023-03-17T12:26:33;13.10;99.90
37788;DHT22;23627;53.302;-6.362;2023-03-17T12:29:08;13.20;99.90
37788;DHT22;23627;53.302;-6.362;2023-03-17T12:31:45;13.30;99.90
37788;DHT22;23627;53.302;-6.362;2023-03-17T12:37:15;13.40;99.90
37788;DHT22;23627;53.302;-6.362;2023-03-17T12:39:48;13.50;99.90
37788;DHT22;23627;53.302;-6.362;2023-03-17T12:42:36;13.60;99.90
37788;DHT22;23627;53.302;-6.362;2023-03-17T12:53:46;13.80;99.90
37788;DHT22;23627;53.302;-6.362;2023-03-17T12:56:17;13.90;99.90
37788;DHT22;23627;53.302;-6.362;2023-03-17T12:58:47;14.10;99.90
37788;DHT22;23627;53.302;-6.362;2023-03-17T13:01:39;14.30;99.90
37788;DHT22;23627;53.302;-6.362;2023-03-17T13:04:30;14.40;99.90
37788;DHT22;23627;53.302;-6.362;2023-03-17T13:26:07;15.80;99.90
37788;DHT22;23627;53.302;-6.362;2023-03-17T13:35:25;15.90;99.90
37788;DHT22;23627;53.302;-6.362;2023-03-17T13:40:47;15.90;99.90
37788;DHT22;23627;53.302;-6.362;2023-03-17T14:05:57;15.90;99.90
37788;DHT22;23627;53.302;-6.362;2023-03-17T14:21:39;16.60;99.90
37788;DHT22;23627;53.302;-6.362;2023-03-17T14:24:20;16.70;99.90
37788;DHT22;23627;53.302;-6.362;2023-03-17T14:27:10;16.70;99.90
37788;DHT22;23627;53.302;-6.362;2023-03-17T15:00:45;15.90;99.90
37788;DHT22;23627;53.302;-6.362;2023-03-17T15:03:22;15.90;99.90
37788;DHT22;23627;53.302;-6.362;2023-03-17T15:05:50;15.80;99.90
37788;DHT22;23627;53.302;-6.362;2023-03-17T15:08:39;15.70;99.90
37788;DHT22;23627;53.302;-6.362;2023-03-17T15:16:21;15.50;99.90
37788;DHT22;23627;53.302;-6.362;2023-03-17T15:19:04;15.40;99.90
37788;DHT22;23627;53.302;-6.362;2023-03-17T15:21:38;15.40;99.90
37788;DHT22;23627;53.302;-6.362;2023-03-17T15:35:11;15.60;99.90
37788;DHT22;23627;53.302;-6.362;2023-03-17T15:37:39;15.60;99.90
37788;DHT22;23627;53.302;-6.362;2023-03-17T15:40:05;15.70;99.90
37788;DHT22;23627;53.302;-6.362;2023-03-17T15:42:35;15.70;99.90
37788;DHT22;23627;53.302;-6.362;2023-03-17T15:45:02;15.60;99.90
37788;DHT22;23627;53.302;-6.362;2023-03-17T15:47:31;15.60;99.90
37788;DHT22;23627;53.302;-6.362;2023-03-17T15:50:05;15.60;99.90
37788;DHT22;23627;53.302;-6.362;2023-03-17T15:52:35;15.60;99.90
37788;DHT22;23627;53.302;-6.362;2023-03-17T15:55:01;15.70;99.90
37788;DHT22;23627;53.302;-6.362;2023-03-17T15:57:27;15.80;99.90
37788;DHT22;23627;53.302;-6.362;2023-03-17T15:59:53;15.90;99.90
37788;DHT22;23627;53.302;-6.362;2023-03-17T16:02:31;16.00;99.90
37788;DHT22;23627;53.302;-6.362;2023-03-17T16:04:59;16.00;99.90
37788;DHT22;23627;53.302;-6.362;2023-03-17T16:07:25;16.00;99.90
37788;DHT22;23627;53.302;-6.362;2023-03-17T16:09:51;16.00;99.90
37788;DHT22;23627;53.302;-6.362;2023-03-17T16:12:17;15.90;99.90
37788;DHT22;23627;53.302;-6.362;2023-03-17T16:14:43;15.90;99.90
37788;DHT22;23627;53.302;-6.362;2023-03-17T16:17:27;15.90;99.90
37788;DHT22;23627;53.302;-6.362;2023-03-17T16:19:57;15.80;99.90
37788;DHT22;23627;53.302;-6.362;2023-03-17T16:22:37;15.80;99.90
37788;DHT22;23627;53.302;-6.362;2023-03-17T16:25:15;15.70;99.90
37788;DHT22;23627;53.302;-6.362;2023-03-17T16:27:42;15.60;99.90
37788;DHT22;23627;53.302;-6.362;2023-03-17T16:30:14;15.60;99.90
37788;DHT22;23627;53.302;-6.362;2023-03-17T16:32:40;15.60;99.90
37788;DHT22;23627;53.302;-6.362;2023-03-17T16:35:18;15.60;99.90
37788;DHT22;23627;53.302;-6.362;2023-03-17T16:37:44;15.70;99.90
37788;DHT22;23627;53.302;-6.362;2023-03-17T16:40:34;15.70;99.90
37788;DHT22;23627;53.302;-6.362;2023-03-17T16:43:05;15.70;99.90
37788;DHT22;23627;53.302;-6.362;2023-03-17T16:45:35;15.60;99.90
37788;DHT22;23627;53.302;-6.362;2023-03-17T16:48:03;15.50;99.90
37788;DHT22;23627;53.302;-6.362;2023-03-17T16:50:31;15.50;99.90
37788;DHT22;23627;53.302;-6.362;2023-03-17T16:52:58;15.40;99.90
37788;DHT22;23627;53.302;-6.362;2023-03-17T16:55:25;15.30;99.90
37788;DHT22;23627;53.302;-6.362;2023-03-17T16:57:55;15.30;99.90
37788;DHT22;23627;53.302;-6.362;2023-03-17T17:00:24;15.20;99.90
37788;DHT22;23627;53.302;-6.362;2023-03-17T17:02:51;15.20;99.90
37788;DHT22;23627;53.302;-6.362;2023-03-17T17:05:22;15.20;99.90
37788;DHT22;23627;53.302;-6.362;2023-03-17T17:07:49;15.10;99.90
37788;DHT22;23627;53.302;-6.362;2023-03-17T17:10:17;15.10;99.90
37788;DHT22;23627;53.302;-6.362;2023-03-17T17:12:44;15.00;99.90
37788;DHT22;23627;53.302;-6.362;2023-03-17T17:15:11;14.90;99.90
37788;DHT22;23627;53.302;-6.362;2023-03-17T17:17:39;14.90;99.90
37788;DHT22;23627;53.302;-6.362;2023-03-17T17:20:24;14.80;99.90
37788;DHT22;23627;53.302;-6.362;2023-03-17T17:22:53;14.80;99.90
37788;DHT22;23627;53.302;-6.362;2023-03-17T17:25:19;14.90;99.90
37788;DHT22;23627;53.302;-6.362;2023-03-17T17:27:45;14.90;99.90
37788;DHT22;23627;53.302;-6.362;2023-03-17T17:30:14;14.90;99.90
37788;DHT22;23627;53.302;-6.362;2023-03-17T17:32:41;14.80;99.90
37788;DHT22;23627;53.302;-6.362;2023-03-17T17:35:07;14.70;99.90
37788;DHT22;23627;53.302;-6.362;2023-03-17T17:37:33;14.60;99.90
37788;DHT22;23627;53.302;-6.362;2023-03-17T17:39:59;14.50;99.90
37788;DHT22;23627;53.302;-6.362;2023-03-17T17:42:25;14.40;99.90
37788;DHT22;23627;53.302;-6.362;2023-03-17T17:44:51;14.40;99.90
37788;DHT22;23627;53.302;-6.362;2023-03-17T17:47:17;14.30;99.90
37788;DHT22;23627;53.302;-6.362;2023-03-17T17:49:45;14.30;99.90
37788;DHT22;23627;53.302;-6.362;2023-03-17T17:52:11;14.20;99.90
37788;DHT22;23627;53.302;-6.362;2023-03-17T17:54:37;14.20;99.90
37788;DHT22;23627;53.302;-6.362;2023-03-17T17:57:03;14.20;99.90
37788;DHT22;23627;53.302;-6.362;2023-03-17T17:59:29;14.20;99.90
37788;DHT22;23627;53.302;-6.362;2023-03-17T18:01:55;14.10;99.90
37788;DHT22;23627;53.302;-6.362;2023-03-17T18:04:21;14.10;99.90
37788;DHT22;23627;53.302;-6.362;2023-03-17T18:06:47;14.00;99.90
37788;DHT22;23627;53.302;-6.362;2023-03-17T18:09:13;14.00;99.90
37788;DHT22;23627;53.302;-6.362;2023-03-17T18:11:39;14.00;99.90
37788;DHT22;23627;53.302;-6.362;2023-03-17T18:14:08;14.00;99.90
37788;DHT22;23627;53.302;-6.362;2023-03-17T18:16:35;13.90;99.90
37788;DHT22;23627;53.302;-6.362;2023-03-17T18:19:08;13.90;99.90
37788;DHT22;23627;53.302;-6.362;2023-03-17T18:21:35;13.80;99.90
37788;DHT22;23627;53.302;-6.362;2023-03-17T18:24:16;13.80;99.90
37788;DHT22;23627;53.302;-6.362;2023-03-17T18:26:43;13.70;99.90
37788;DHT22;23627;53.302;-6.362;2023-03-17T18:29:09;13.70;99.90
37788;DHT22;23627;53.302;-6.362;2023-03-17T18:31:45;13.60;99.90
37788;DHT22;23627;53.302;-6.362;2023-03-17T18:34:16;13.60;99.90
37788;DHT22;23627;53.302;-6.362;2023-03-17T18:36:43;13.60;99.90
37788;DHT22;23627;53.302;-6.362;2023-03-17T18:39:10;13.50;99.90
37788;DHT22;23627;53.302;-6.362;2023-03-17T18:41:37;13.50;99.90
37788;DHT22;23627;53.302;-6.362;2023-03-17T18:44:03;13.40;99.90
37788;DHT22;23627;53.302;-6.362;2023-03-17T18:46:32;13.40;99.90
37788;DHT22;23627;53.302;-6.362;2023-03-17T18:49:32;13.40;99.90
37788;DHT22;23627;53.302;-6.362;2023-03-17T18:51:58;13.40;99.90
37788;DHT22;23627;53.302;-6.362;2023-03-17T18:54:25;13.30;99.90
37788;DHT22;23627;53.302;-6.362;2023-03-17T18:56:52;13.30;99.90
37788;DHT22;23627;53.302;-6.362;2023-03-17T18:59:18;13.30;99.90
37788;DHT22;23627;53.302;-6.362;2023-03-17T19:01:44;13.30;99.90
37788;DHT22;23627;53.302;-6.362;2023-03-17T19:04:10;13.20;99.90
37788;DHT22;23627;53.302;-6.362;2023-03-17T19:06:36;13.20;99.90
37788;DHT22;23627;53.302;-6.362;2023-03-17T19:09:05;13.20;99.90
37788;DHT22;23627;53.302;-6.362;2023-03-17T19:11:31;13.10;99.90
37788;DHT22;23627;53.302;-6.362;2023-03-17T19:13:57;13.10;99.90
37788;DHT22;23627;53.302;-6.362;2023-03-17T19:16:24;13.10;99.90